• Join FlightAware (Why Join?)
  • Login
  • US Flag 
02:37PM EST


 

Airport Tracker/Info


-or-


 

Live Flight TrackerFlight Track Log ✈ N762NC ✈ 09-Oct-2013 ✈ KORD - KATL

Flight Track Log - Related Links

Times and Time Zones

All times are in EDT time to prevent confusion due to time zone crossing. See the N762NC flight status page for this flight to view local times or setup timezone preferences in your user account.

Time Position Orientation Groundspeed Altitude Reporting Facility
EDT Latitude Longitude Course Direction KTS MPH feet Rate Location/Type
09:53AM 41.9333 -87.9000 180° South 169 194 1,700  Level Chicago TRACON
09:54AM 41.8833 -87.9000 180° South 218 251 3,900 2,040 Climbing Chicago TRACON
09:55AM 41.8167 -87.8667 160° South 244 281 5,800 2,040 Climbing Chicago TRACON
09:56AM 41.5766 -87.7169 169° South  Level Estimated
09:57AM 41.4694 -87.7169 180° South  Level FlightAware Approximate
09:57AM 41.7294 -87.7919 147° Southeast 273 314 9,000  Level Chicago Center
09:58AM 41.3621 -87.7168 180° South  Level FlightAware Approximate
09:58AM 41.6558 -87.8094 190° South 273 314 11,200  Level Chicago Center
09:59AM 41.5758 -87.8044 177° South 282 325 12,800 1,560 Climbing Chicago Center
10:00AM 41.4839 -87.8011 178° South 320 368 14,500 1,560 Climbing Chicago Center
10:01AM 41.3897 -87.8011 180° South 333 383 16,100 1,560 Climbing Chicago Center
10:02AM 41.2894 -87.7931 177° South 354 407 17,800 1,260 Climbing Chicago Center
10:03AM 41.1872 -87.7689 170° South 367 422 18,800 1,200 Climbing Chicago Center
10:04AM 41.0572 -87.7642 178° South 391 450 20,400 1,560 Climbing Chicago Center
10:05AM 40.9467 -87.7633 180° South 396 456 22,100 1,440 Climbing Chicago Center
10:06AM 40.8342 -87.7653 181° South 400 460 23,400 1,200 Climbing Chicago Center
10:07AM 40.7186 -87.7658 180° South 410 472 24,700 1,140 Climbing Chicago Center
10:08AM 40.6025 -87.7689 181° South 417 480 25,800 1,080 Climbing Chicago Center
10:09AM 40.4831 -87.7656 179° South 424 488 27,000 1,080 Climbing Chicago Center
10:10AM 40.3406 -87.7497 175° South 429 494 28,100 1,080 Climbing Chicago Center
10:11AM 40.2203 -87.7492 180° South 432 497 29,300 1,020 Climbing Chicago Center
10:12AM 40.0964 -87.7569 183° South 436 502 30,200 840 Climbing Indianapolis Center
10:13AM 39.9747 -87.7578 180° South 440 506 31,000 780 Climbing Indianapolis Center
10:14AM 39.8528 -87.7642 182° South 441 507 31,900 840 Climbing Indianapolis Center
10:15AM 39.7303 -87.7683 181° South 443 510 32,800 720 Climbing Indianapolis Center
10:16AM 39.6083 -87.7708 181° South 443 510 33,400 720 Climbing Indianapolis Center
10:17AM 39.4619 -87.7783 182° South 439 505 34,400 720 Climbing Indianapolis Center
10:18AM 39.3456 -87.7836 182° South 435 501 35,000 240 Climbing Indianapolis Center
10:19AM 39.2236 -87.7822 179° South 437 503 35,000  Level Indianapolis Center
10:20AM 39.1011 -87.7806 179° South 439 505 35,000  Level Indianapolis Center
10:21AM 38.9781 -87.7775 179° South 441 507 35,000  Level Indianapolis Center
10:22AM 38.8314 -87.7803 181° South 439 505 35,000  Level Indianapolis Center
10:23AM 38.7103 -87.7878 183° South 437 503 35,000  Level Indianapolis Center
10:24AM 38.5894 -87.7608 170° South 443 510 35,000  Level Indianapolis Center
10:25AM 38.4742 -87.7111 161° South 440 506 35,000  Level Indianapolis Center
10:26AM 38.3575 -87.6583 160° South 444 511 35,000  Level Indianapolis Center
10:27AM 38.2422 -87.6064 161° South 441 507 35,000  Level Indianapolis Center
10:28AM 38.1033 -87.5419 160° South 444 511 35,000  Level Indianapolis Center
10:30AM 37.9872 -87.4875 160° South 446 513 35,000  Level Indianapolis Center
10:31AM 37.8717 -87.4322 159° South 446 513 35,000  Level Indianapolis Center
10:32AM 37.7531 -87.3767 160° South 446 513 35,000  Level Indianapolis Center
10:33AM 37.6356 -87.3206 159° South 447 514 35,000  Level Indianapolis Center
10:34AM 37.5183 -87.2656 160° South 446 513 35,000  Level Indianapolis Center
10:35AM 37.3819 -87.2031 160° South 445 512 35,000  Level Indianapolis Center
10:36AM 37.2636 -87.1500 160° South 447 514 35,000  Level Indianapolis Center
10:37AM 37.1478 -87.0931 159° South 444 511 35,000  Level Indianapolis Center
10:38AM 37.0300 -87.0378 159° South 446 513 35,000  Level Indianapolis Center
10:39AM 36.9136 -86.9831 159° South 443 510 35,000  Level Indianapolis Center
10:40AM 36.7953 -86.9297 160° South 446 513 35,000  Level Indianapolis Center
10:41AM 36.6736 -86.8983 168° South 442 509 35,000  Level Indianapolis Center
10:42AM 36.5303 -86.8603 168° South 436 502 35,000  Level Memphis Center
10:43AM 36.4356 -86.8231 162° South 437 503 35,000  Level Memphis Center
10:44AM 36.2881 -86.7728 165° South 448 516 35,000  Level Memphis Center
10:45AM 36.1806 -86.7314 163° South 462 532 35,000  Level Memphis Center
10:46AM 36.0742 -86.6617 152° Southeast 441 507 35,000 -420 Level Memphis Center
10:47AM 35.9736 -86.5686 143° Southeast 446 513 34,200 -720 Descending Memphis Center
10:49AM 35.7897 -86.3889 142° Southeast 456 525 33,000 -480 Descending Atlanta Center
10:50AM 35.6828 -86.3014 146° Southeast 456 525 33,000  Level Atlanta Center
10:51AM 35.5781 -86.2142 146° Southeast 462 532 33,000  Level Atlanta Center
10:52AM 35.4856 -86.1378 146° Southeast 462 532 33,000 -120 Level Atlanta Center
10:53AM 35.3661 -86.0431 147° Southeast 462 532 32,800 -360 Descending Atlanta Center
10:54AM 35.2692 -85.9747 150° Southeast 455 524 32,300 -960 Descending Atlanta Center
10:55AM 35.1514 -85.8881 149° Southeast 455 524 30,900 -1,380 Descending Atlanta Center
10:56AM 35.0442 -85.8044 147° Southeast 455 524 29,600 -1,380 Descending Atlanta Center
10:57AM 34.9328 -85.7261 150° Southeast 460 529 28,200 -1,440 Descending Atlanta Center
10:58AM 34.8231 -85.6481 150° Southeast 460 529 26,800 -1,500 Descending Atlanta Center
10:59AM 34.7114 -85.5650 149° Southeast 460 529 25,300 -1,620 Descending Atlanta Center
11:00AM 34.6081 -85.4900 149° Southeast 455 524 23,600 -1,980 Descending Atlanta Center
11:01AM 34.5131 -85.4025 143° Southeast 437 503 21,400 -2,100 Descending Atlanta Center
11:02AM 34.4264 -85.3181 141° Southeast 422 486 19,400 -2,100 Descending Atlanta Center
11:03AM 34.3519 -85.2439 141° Southeast 396 456 17,200 -3,000 Descending Atlanta Center
11:04AM 34.2608 -85.1672 145° Southeast 391 450 13,500 -2,100 Descending Atlanta Center
11:05AM 34.1800 -85.0883 141° Southeast 382 440 13,100 -240 Descending Atlanta Center
11:06AM 34.1033 -85.0172 142° Southeast 359 413 13,100 -660 Level Atlanta Center
11:07AM 34.0247 -84.9461 143° Southeast 338 389 11,800 -1,260 Descending Atlanta Center
11:08AM 33.9606 -84.8803 140° Southeast 314 361 10,600 -1,080 Descending Atlanta Center
11:09AM 33.9108 -84.8147 132° Southeast 283 326 9,700 -1,680 Descending Atlanta Center
11:10AM 33.8500 -84.7833 157° South 272 313 7,600 -1,800 Descending Atlanta TRACON
11:11AM 33.7833 -84.8000 192° South 242 278 6,500 -900 Descending Atlanta TRACON
11:12AM 33.7167 -84.8000 180° South 234 269 5,800 -720 Descending Atlanta TRACON
11:13AM 33.6667 -84.7667 151° Southeast 235 270 5,100 -420 Descending Atlanta TRACON
11:14AM 33.6500 -84.6833 103° East 215 247 5,000 -420 Descending Atlanta TRACON
11:15AM 33.6500 -84.6333 90° East 192 221 4,400 -900 Descending Atlanta TRACON
11:15AM 33.6500 -84.5833 90° East 177 204 3,400 -1,080 Descending Atlanta TRACON
11:16AM 33.6500 -84.5167 90° East 171 197 2,400 -900 Descending Atlanta TRACON
11:17AM 33.6500 -84.4833 90° East 140 161 1,700 -600 Descending Atlanta TRACON
11:18AM 33.6500 -84.4333 90° East 138 159 1,200 -480 Descending Atlanta TRACON